createdAt,value
2018-08-16T00:00:15.597Z,8.17
2018-08-16T00:02:44.793Z,7.30
2018-08-16T00:05:13.589Z,8.23
2018-08-16T00:07:42.293Z,8.80
2018-08-16T00:10:14.055Z,8.53
2018-08-16T00:12:44.366Z,10.20
2018-08-16T00:15:13.720Z,9.13
2018-08-16T00:17:42.289Z,9.67
2018-08-16T00:20:11.926Z,9.73
2018-08-16T00:22:40.417Z,6.77
2018-08-16T00:25:09.720Z,7.20
2018-08-16T00:27:38.217Z,8.87
2018-08-16T00:30:09.057Z,9.33
2018-08-16T00:32:37.553Z,8.67
2018-08-16T00:35:06.613Z,8.73
2018-08-16T00:37:35.090Z,8.40
2018-08-16T00:40:04.117Z,8.97
2018-08-16T00:42:35.278Z,7.60
2018-08-16T00:45:05.470Z,11.90
2018-08-16T00:47:34.773Z,11.53
2018-08-16T00:50:04.368Z,9.50
2018-08-16T00:52:32.868Z,8.13
2018-08-16T00:55:01.738Z,11.23
2018-08-16T00:57:30.157Z,10.60
2018-08-16T00:59:58.613Z,10.30
2018-08-16T01:02:27.081Z,12.07
2018-08-16T01:04:55.535Z,11.40
2018-08-16T01:07:23.949Z,9.70
2018-08-16T01:09:52.388Z,12.13
2018-08-16T01:12:20.868Z,9.33
2018-08-16T01:14:49.381Z,9.80
2018-08-16T01:17:17.828Z,9.00
2018-08-16T01:19:46.353Z,10.97
2018-08-16T01:22:14.870Z,11.30
2018-08-16T01:24:43.365Z,12.83
2018-08-16T01:27:11.824Z,10.30
2018-08-16T01:29:40.252Z,11.47
2018-08-16T01:32:08.917Z,13.53
2018-08-16T01:34:37.424Z,11.37
2018-08-16T01:37:05.901Z,9.90
2018-08-16T01:39:34.389Z,10.50
2018-08-16T01:42:03.310Z,10.23
2018-08-16T01:44:31.729Z,12.23
2018-08-16T01:47:00.221Z,14.00
2018-08-16T01:49:31.142Z,12.10
2018-08-16T01:51:59.910Z,12.37
2018-08-16T01:54:29.572Z,11.83
2018-08-16T01:56:58.933Z,11.23
2018-08-16T01:59:27.545Z,15.83
2018-08-16T02:01:56.048Z,11.97
2018-08-16T02:04:24.517Z,11.47
2018-08-16T02:06:53.378Z,10.90
2018-08-16T02:09:22.924Z,11.83
2018-08-16T02:11:51.756Z,11.47
2018-08-16T02:14:20.759Z,10.93
2018-08-16T02:16:49.780Z,12.17
2018-08-16T02:19:18.249Z,12.80
2018-08-16T02:21:46.811Z,12.33
2018-08-16T02:24:15.274Z,12.67
2018-08-16T02:26:43.765Z,14.37
2018-08-16T02:29:12.277Z,11.20
2018-08-16T02:31:40.782Z,15.47
2018-08-16T02:34:09.263Z,14.03
2018-08-16T02:36:37.690Z,13.40
2018-08-16T02:39:08.837Z,13.23
2018-08-16T02:41:38.021Z,14.20
2018-08-16T02:44:06.929Z,12.73
2018-08-16T02:46:35.392Z,14.53
2018-08-16T02:49:03.969Z,12.90
2018-08-16T02:51:32.400Z,10.93
2018-08-16T02:54:00.863Z,13.13
2018-08-16T02:56:29.370Z,16.43
2018-08-16T02:58:57.917Z,13.07
2018-08-16T03:01:26.361Z,13.80
2018-08-16T03:03:54.829Z,16.13
2018-08-16T03:06:23.282Z,12.20
2018-08-16T03:08:51.731Z,12.93
2018-08-16T03:11:20.179Z,17.97
2018-08-16T03:13:48.668Z,15.90
2018-08-16T03:16:17.136Z,14.83
2018-08-16T03:18:45.602Z,15.20
2018-08-16T03:21:14.133Z,14.70
2018-08-16T03:23:42.564Z,19.10
2018-08-16T03:26:11.038Z,13.67
2018-08-16T03:28:39.489Z,13.30
2018-08-16T03:31:07.973Z,17.53
2018-08-16T03:33:36.432Z,14.90
2018-08-16T03:36:04.893Z,15.30
2018-08-16T03:38:33.400Z,16.00
2018-08-16T03:41:01.833Z,15.53
2018-08-16T03:43:30.273Z,15.83
2018-08-16T03:45:59.360Z,14.87
2018-08-16T03:48:27.814Z,15.00
2018-08-16T03:50:56.246Z,14.47
2018-08-16T03:53:24.689Z,11.50
2018-08-16T03:55:53.141Z,12.17
2018-08-16T03:58:21.660Z,14.30
2018-08-16T04:00:50.042Z,13.60
2018-08-16T04:03:18.488Z,14.90
2018-08-16T04:05:46.928Z,15.77
2018-08-16T04:08:15.356Z,14.70
2018-08-16T04:10:43.816Z,14.97
2018-08-16T04:13:12.248Z,13.87
2018-08-16T04:15:40.662Z,19.97
2018-08-16T04:18:09.180Z,13.43
2018-08-16T04:20:37.660Z,14.40
2018-08-16T04:23:06.144Z,12.67
2018-08-16T04:25:34.679Z,17.30
2018-08-16T04:28:03.468Z,14.27
2018-08-16T04:30:31.902Z,14.23
2018-08-16T04:33:00.385Z,16.57
2018-08-16T04:35:28.950Z,13.17
2018-08-16T04:37:57.341Z,15.10
2018-08-16T04:40:25.799Z,15.37
2018-08-16T04:42:54.269Z,14.87
2018-08-16T04:45:22.749Z,11.30
2018-08-16T04:47:51.184Z,13.77
2018-08-16T04:50:19.661Z,14.43
2018-08-16T04:52:48.109Z,17.10
2018-08-16T04:55:16.524Z,14.90
2018-08-16T04:57:44.988Z,13.33
2018-08-16T05:00:14.100Z,14.87
2018-08-16T05:02:42.552Z,12.80
2018-08-16T05:05:10.989Z,13.20
2018-08-16T05:07:39.472Z,13.00
2018-08-16T05:10:09.564Z,11.30
2018-08-16T05:12:38.017Z,13.83
2018-08-16T05:15:09.113Z,10.90
2018-08-16T05:17:37.868Z,12.20
2018-08-16T05:20:09.156Z,12.37
2018-08-16T05:22:37.656Z,11.50
2018-08-16T05:25:06.268Z,11.97
2018-08-16T05:27:34.972Z,12.33
2018-08-16T05:30:03.668Z,9.63
2018-08-16T05:32:32.121Z,12.07
2018-08-16T05:35:00.596Z,11.00
2018-08-16T05:37:29.078Z,11.83
2018-08-16T05:39:57.505Z,9.63
2018-08-16T05:42:26.012Z,11.03
2018-08-16T05:44:54.477Z,12.90
2018-08-16T05:47:22.975Z,10.47
2018-08-16T05:49:51.412Z,12.20
2018-08-16T05:52:19.866Z,9.17
2018-08-16T05:54:48.338Z,9.57
2018-08-16T05:57:16.801Z,12.53
2018-08-16T05:59:45.333Z,10.70
2018-08-16T06:02:14.249Z,10.77
2018-08-16T06:04:42.785Z,9.20
2018-08-16T06:07:11.206Z,9.90
2018-08-16T06:09:39.661Z,8.70
2018-08-16T06:12:08.105Z,8.87
2018-08-16T06:14:36.608Z,12.83
2018-08-16T06:17:05.125Z,10.63
2018-08-16T06:19:33.587Z,8.73
2018-08-16T06:22:02.248Z,9.67
2018-08-16T06:24:30.688Z,11.57
2018-08-16T06:26:59.282Z,8.93
2018-08-16T06:29:27.744Z,7.37
2018-08-16T06:31:56.231Z,6.87
2018-08-16T06:34:24.749Z,9.90
2018-08-16T06:36:53.198Z,8.90
2018-08-16T06:39:21.732Z,8.40
2018-08-16T06:41:50.809Z,9.17
2018-08-16T06:44:19.263Z,9.53
2018-08-16T06:46:47.749Z,8.13
2018-08-16T06:49:16.281Z,6.87
2018-08-16T06:51:44.768Z,8.73
2018-08-16T06:54:13.201Z,6.87
2018-08-16T06:56:41.653Z,7.07
2018-08-16T06:59:10.115Z,8.27
2018-08-16T07:01:38.600Z,8.03
2018-08-16T07:04:07.090Z,8.37
2018-08-16T07:06:35.564Z,8.17
2018-08-16T07:09:05.735Z,8.30
2018-08-16T07:11:34.219Z,9.50
2018-08-16T07:14:02.701Z,7.90
2018-08-16T07:16:31.202Z,7.80
2018-08-16T07:18:59.678Z,8.13
2018-08-16T07:21:28.149Z,10.80
2018-08-16T07:23:56.673Z,8.30
2018-08-16T07:26:25.133Z,9.47
2018-08-16T07:28:53.769Z,8.97
2018-08-16T07:31:22.232Z,11.07
2018-08-16T07:33:50.726Z,11.03
2018-08-16T07:36:19.182Z,9.67
2018-08-16T07:38:47.689Z,10.40
2018-08-16T07:41:16.165Z,8.87
2018-08-16T07:43:44.613Z,9.67
2018-08-16T07:46:13.180Z,8.83
2018-08-16T07:48:41.580Z,8.43
2018-08-16T07:51:10.092Z,7.67
2018-08-16T07:53:38.575Z,9.93
2018-08-16T07:56:07.093Z,7.20
2018-08-16T07:58:35.638Z,7.70
2018-08-16T08:01:04.045Z,10.70
2018-08-16T08:03:32.462Z,8.97
2018-08-16T08:06:00.929Z,7.73
2018-08-16T08:08:29.444Z,7.87
2018-08-16T08:10:57.876Z,10.37
2018-08-16T08:13:26.340Z,8.77
2018-08-16T08:15:54.833Z,8.40
2018-08-16T08:18:23.301Z,8.93
2018-08-16T08:20:51.897Z,9.57
2018-08-16T08:23:20.348Z,10.87
2018-08-16T08:25:48.865Z,8.70
2018-08-16T08:28:17.289Z,9.30
2018-08-16T08:30:45.818Z,9.40
2018-08-16T08:33:14.285Z,8.53
2018-08-16T08:35:43.228Z,9.80
2018-08-16T08:38:14.649Z,9.23
2018-08-16T08:40:43.092Z,8.33
2018-08-16T08:43:21.489Z,8.60
2018-08-16T08:45:49.904Z,8.07
2018-08-16T08:48:18.349Z,8.13
2018-08-16T08:50:46.784Z,10.23
2018-08-16T08:53:26.477Z,9.20
2018-08-16T08:56:06.045Z,9.60
2018-08-16T08:58:51.544Z,9.57
2018-08-16T09:01:20.007Z,8.00
2018-08-16T09:03:49.436Z,9.27
2018-08-16T09:06:18.019Z,11.00
2018-08-16T09:08:46.477Z,10.07
2018-08-16T09:11:26.313Z,10.23
2018-08-16T09:14:07.501Z,10.97
2018-08-16T09:16:37.244Z,8.43
2018-08-16T09:19:06.409Z,8.50
2018-08-16T09:21:35.495Z,9.70
2018-08-16T09:24:04.136Z,9.30
2018-08-16T09:26:37.918Z,10.97
2018-08-16T09:30:16.836Z,7.97
2018-08-16T09:32:56.599Z,9.93
2018-08-16T09:35:25.989Z,9.50
2018-08-16T09:37:54.506Z,8.60
2018-08-16T09:40:23.001Z,9.87
2018-08-16T09:42:51.493Z,13.83
2018-08-16T09:45:32.262Z,10.63
2018-08-16T09:48:11.820Z,8.87
2018-08-16T09:50:40.336Z,11.57
2018-08-16T09:53:08.823Z,8.73
2018-08-16T09:55:37.320Z,10.83
2018-08-16T09:58:05.869Z,10.13
2018-08-16T10:00:39.772Z,9.63
2018-08-16T10:03:08.878Z,8.67
2018-08-16T10:05:37.341Z,10.93
2018-08-16T10:08:05.776Z,13.73
2018-08-16T10:10:34.646Z,10.47
2018-08-16T10:13:03.109Z,10.80
2018-08-16T10:15:31.571Z,10.67
2018-08-16T10:18:00.049Z,8.17
2018-08-16T10:20:28.572Z,10.87
2018-08-16T10:22:57.040Z,9.27
2018-08-16T10:25:25.492Z,8.50
2018-08-16T10:27:53.940Z,9.83
2018-08-16T10:30:22.393Z,9.90
2018-08-16T10:32:51.204Z,8.70
2018-08-16T10:35:19.665Z,9.33
2018-08-16T10:37:48.125Z,9.20
2018-08-16T10:40:16.545Z,10.87
2018-08-16T10:42:45.033Z,7.37
2018-08-16T10:45:13.500Z,8.40
2018-08-16T10:47:41.963Z,7.07
2018-08-16T10:50:11.514Z,10.80
2018-08-16T10:52:39.988Z,9.37
2018-08-16T10:55:16.851Z,8.97
2018-08-16T10:57:45.362Z,9.57
2018-08-16T11:00:13.865Z,6.47
2018-08-16T11:02:42.335Z,8.40
2018-08-16T11:05:10.783Z,8.10
2018-08-16T11:07:39.336Z,9.70
2018-08-16T11:10:07.710Z,7.27
2018-08-16T11:12:36.149Z,8.50
2018-08-16T11:15:06.175Z,6.83
2018-08-16T11:17:34.613Z,6.53
2018-08-16T11:20:03.089Z,7.23
2018-08-16T11:22:31.551Z,7.03
2018-08-16T11:24:59.989Z,6.93
2018-08-16T11:27:28.439Z,5.63
2018-08-16T11:29:56.913Z,7.80
2018-08-16T11:32:25.356Z,7.33
2018-08-16T11:34:53.845Z,7.27
2018-08-16T11:37:22.256Z,7.03
2018-08-16T11:39:50.672Z,6.63
2018-08-16T11:42:19.141Z,7.43
2018-08-16T11:44:47.561Z,8.00
2018-08-16T11:47:16.008Z,7.40
2018-08-16T11:49:44.432Z,10.00
2018-08-16T11:52:12.879Z,8.07
2018-08-16T11:54:41.325Z,6.20
2018-08-16T11:57:09.777Z,7.50
2018-08-16T11:59:38.212Z,5.83
2018-08-16T12:02:06.747Z,8.13
2018-08-16T12:04:35.150Z,6.53
2018-08-16T12:07:03.660Z,9.43
2018-08-16T12:09:32.114Z,8.40
2018-08-16T12:12:00.648Z,6.47
2018-08-16T12:14:29.778Z,5.93
2018-08-16T12:16:58.229Z,8.83
2018-08-16T12:19:26.664Z,9.73
2018-08-16T12:21:55.159Z,5.43
2018-08-16T12:24:23.617Z,5.53
2018-08-16T12:26:52.083Z,6.60
2018-08-16T12:29:20.772Z,8.77
2018-08-16T12:31:49.229Z,7.53
2018-08-16T12:34:17.688Z,6.50
2018-08-16T12:36:46.129Z,6.60
2018-08-16T12:39:14.628Z,6.33
2018-08-16T12:41:43.089Z,6.33
2018-08-16T12:44:11.536Z,5.83
2018-08-16T12:46:40.018Z,6.30
2018-08-16T12:49:08.481Z,7.03
2018-08-16T12:51:36.949Z,6.93
2018-08-16T12:54:06.361Z,7.73
2018-08-16T12:56:34.805Z,8.03
2018-08-16T12:59:03.308Z,6.30
2018-08-16T13:01:31.773Z,6.90
2018-08-16T13:04:00.224Z,7.40
2018-08-16T13:06:28.660Z,8.07
2018-08-16T13:08:57.164Z,5.90
2018-08-16T13:11:25.569Z,7.33
2018-08-16T13:13:54.428Z,7.00
2018-08-16T13:16:23.561Z,8.03
2018-08-16T13:18:52.249Z,9.20
2018-08-16T13:21:20.691Z,5.40
2018-08-16T13:23:49.157Z,6.40
2018-08-16T13:26:17.621Z,6.17
2018-08-16T13:28:46.079Z,6.60
2018-08-16T13:31:14.581Z,7.67
2018-08-16T13:33:43.093Z,6.10
2018-08-16T13:36:11.533Z,7.53
2018-08-16T13:38:39.976Z,6.63
2018-08-16T13:41:08.410Z,7.13
2018-08-16T13:43:36.853Z,7.80
2018-08-16T13:46:05.537Z,7.47
2018-08-16T13:48:34.145Z,7.43
2018-08-16T13:51:02.556Z,6.10
2018-08-16T13:53:31.049Z,7.80
2018-08-16T13:55:59.693Z,7.30
2018-08-16T13:58:28.125Z,5.47
2018-08-16T14:00:56.721Z,6.15
2018-08-16T14:03:25.145Z,7.23
2018-08-16T14:05:53.572Z,6.20
2018-08-16T14:08:21.994Z,7.03
2018-08-16T14:10:51.566Z,7.53
2018-08-16T14:13:21.199Z,6.30
2018-08-16T14:15:49.747Z,7.13
2018-08-16T14:18:18.192Z,8.93
2018-08-16T14:20:46.638Z,7.43
2018-08-16T14:23:15.085Z,6.97
2018-08-16T14:25:43.512Z,7.93
2018-08-16T14:28:11.960Z,7.27
2018-08-16T14:30:40.437Z,6.10
2018-08-16T14:33:09.770Z,6.50
2018-08-16T14:35:38.193Z,6.30
2018-08-16T14:38:06.729Z,5.90
2018-08-16T14:40:35.161Z,8.50
2018-08-16T14:43:03.632Z,8.17
2018-08-16T14:45:32.045Z,7.70
2018-08-16T14:48:04.685Z,8.37
2018-08-16T14:50:33.109Z,8.03
2018-08-16T14:53:01.537Z,7.27
2018-08-16T14:55:29.961Z,7.17
2018-08-16T14:57:58.396Z,6.70
2018-08-16T15:00:26.981Z,6.73
2018-08-16T15:02:55.522Z,6.13
2018-08-16T15:05:23.965Z,10.10
2018-08-16T15:07:52.380Z,8.00
2018-08-16T15:10:20.989Z,9.43
2018-08-16T15:12:49.468Z,7.40
2018-08-16T15:15:17.937Z,8.07
2018-08-16T15:17:46.365Z,8.30
2018-08-16T15:20:14.832Z,9.53
2018-08-16T15:22:43.616Z,9.47
2018-08-16T15:25:12.012Z,6.83
2018-08-16T15:27:40.470Z,7.37
2018-08-16T15:30:09.556Z,7.60
2018-08-16T15:32:38.012Z,8.03
2018-08-16T15:35:07.107Z,8.83
2018-08-16T15:37:35.689Z,8.17
2018-08-16T15:40:04.185Z,8.70
2018-08-16T15:42:32.618Z,9.63
2018-08-16T15:45:01.101Z,9.87
2018-08-16T15:47:29.628Z,9.57
2018-08-16T15:49:58.249Z,8.27
2018-08-16T15:52:26.667Z,7.87
2018-08-16T15:54:55.116Z,8.43
2018-08-16T15:57:23.548Z,9.07
2018-08-16T15:59:52.010Z,9.20
2018-08-16T16:02:20.457Z,7.57
2018-08-16T16:04:48.905Z,10.27
2018-08-16T16:07:17.383Z,8.57
2018-08-16T16:09:45.829Z,11.03
2018-08-16T16:12:14.333Z,8.93
2018-08-16T16:14:42.853Z,8.60
2018-08-16T16:17:11.346Z,11.70
2018-08-16T16:19:40.434Z,8.03
2018-08-16T16:22:08.916Z,8.77
2018-08-16T16:24:37.360Z,9.17
2018-08-16T16:27:05.852Z,9.87
2018-08-16T16:29:34.296Z,8.37
2018-08-16T16:32:02.735Z,10.47
2018-08-16T16:34:31.220Z,9.60
2018-08-16T16:36:59.702Z,9.90
2018-08-16T16:39:28.151Z,10.17
2018-08-16T16:41:56.624Z,11.17
2018-08-16T16:44:25.092Z,9.10
2018-08-16T16:46:53.543Z,12.37
2018-08-16T16:49:23.168Z,10.43
2018-08-16T16:51:52.960Z,12.73
2018-08-16T16:54:21.425Z,12.00
2018-08-16T16:56:50.249Z,10.77
2018-08-16T16:59:18.757Z,12.97
2018-08-16T17:01:47.225Z,12.00
2018-08-16T17:04:16.058Z,12.60
2018-08-16T17:06:44.470Z,12.43
2018-08-16T17:09:13.140Z,11.17
2018-08-16T17:11:42.332Z,13.93
2018-08-16T17:14:11.044Z,11.93
2018-08-16T17:16:39.517Z,8.93
2018-08-16T17:19:08.082Z,13.50
2018-08-16T17:21:36.513Z,12.73
2018-08-16T17:24:04.984Z,13.90
2018-08-16T17:26:33.491Z,12.40
2018-08-16T17:29:01.864Z,13.27
2018-08-16T17:31:30.350Z,9.50
2018-08-16T17:33:58.792Z,10.30
2018-08-16T17:36:27.232Z,12.07
2018-08-16T17:38:55.691Z,12.23
2018-08-16T17:41:24.160Z,12.07
2018-08-16T17:43:52.624Z,13.33
2018-08-16T17:46:21.150Z,9.67
2018-08-16T17:48:54.367Z,12.17
2018-08-16T17:51:23.343Z,12.97
2018-08-16T17:53:52.164Z,12.13
2018-08-16T17:56:21.325Z,11.03
2018-08-16T17:58:49.839Z,12.37
2018-08-16T18:01:18.377Z,11.43
2018-08-16T18:03:48.085Z,13.13
2018-08-16T18:06:16.530Z,13.80
2018-08-16T18:08:45.017Z,16.03
2018-08-16T18:11:14.117Z,14.77
2018-08-16T18:13:42.595Z,13.37
2018-08-16T18:16:11.064Z,13.30
2018-08-16T18:18:39.535Z,15.20
2018-08-16T18:21:07.992Z,18.53
2018-08-16T18:23:36.464Z,14.87
2018-08-16T18:26:04.937Z,13.20
2018-08-16T18:28:33.368Z,16.87
2018-08-16T18:31:01.812Z,15.33
2018-08-16T18:33:30.262Z,14.17
2018-08-16T18:35:58.727Z,12.37
2018-08-16T18:38:27.157Z,14.20
2018-08-16T18:40:55.616Z,14.37
2018-08-16T18:43:24.053Z,14.13
2018-08-16T18:45:52.527Z,14.60
2018-08-16T18:48:20.960Z,17.53
2018-08-16T18:50:49.400Z,16.13
2018-08-16T18:53:17.910Z,17.27
2018-08-16T18:55:46.332Z,15.77
2018-08-16T18:58:14.801Z,17.17
2018-08-16T19:00:43.241Z,17.30
2018-08-16T19:03:11.700Z,18.23
2018-08-16T19:05:40.314Z,18.90
2018-08-16T19:08:08.616Z,15.60
2018-08-16T19:10:37.084Z,17.17
2018-08-16T19:13:05.594Z,14.27
2018-08-16T19:15:34.044Z,16.57
2018-08-16T19:18:02.541Z,16.47
2018-08-16T19:20:31.028Z,18.23
2018-08-16T19:22:59.502Z,23.07
2018-08-16T19:25:28.553Z,18.03
2018-08-16T19:27:57.076Z,15.83
2018-08-16T19:30:25.541Z,23.13
2018-08-16T19:32:54.077Z,18.50
2018-08-16T19:35:22.519Z,15.40
2018-08-16T19:37:51.008Z,17.43
2018-08-16T19:40:19.478Z,17.10
2018-08-16T19:42:47.914Z,16.57
2018-08-16T19:45:16.368Z,19.47
2018-08-16T19:47:44.881Z,20.17
2018-08-16T19:50:17.767Z,16.73
2018-08-16T19:52:46.277Z,13.73
2018-08-16T19:55:14.753Z,15.03
2018-08-16T19:57:43.225Z,15.63
2018-08-16T20:00:11.706Z,16.27
2018-08-16T20:02:40.197Z,18.00
2018-08-16T20:05:08.658Z,14.93
2018-08-16T20:07:37.118Z,17.70
2018-08-16T20:10:07.458Z,16.40
2018-08-16T20:12:35.912Z,14.30
2018-08-16T20:15:05.092Z,15.50
2018-08-16T20:17:33.531Z,16.50
2018-08-16T20:20:02.003Z,17.17
2018-08-16T20:22:30.448Z,14.20
2018-08-16T20:24:58.980Z,14.10
2018-08-16T20:27:27.387Z,19.07
2018-08-16T20:29:55.837Z,20.13
2018-08-16T20:32:25.219Z,16.27
2018-08-16T20:34:53.668Z,16.33
2018-08-16T20:37:22.149Z,17.47
2018-08-16T20:39:50.637Z,22.70
2018-08-16T20:42:19.084Z,16.00
2018-08-16T20:44:47.562Z,16.57
2018-08-16T20:47:16.011Z,18.27
2018-08-16T20:49:44.468Z,17.63
2018-08-16T20:52:12.921Z,17.87
2018-08-16T20:54:41.392Z,19.00
2018-08-16T20:57:09.862Z,21.77
2018-08-16T20:59:38.339Z,19.97
2018-08-16T21:02:06.798Z,17.50
2018-08-16T21:04:35.273Z,21.50
2018-08-16T21:07:03.961Z,17.97
2018-08-16T21:09:32.397Z,19.00
2018-08-16T21:12:00.877Z,15.77
2018-08-16T21:14:29.345Z,18.30
2018-08-16T21:16:57.835Z,20.90
2018-08-16T21:19:26.435Z,17.77
2018-08-16T21:21:54.894Z,18.53
2018-08-16T21:24:23.369Z,18.43
2018-08-16T21:26:51.872Z,20.30
2018-08-16T21:29:20.348Z,21.17
2018-08-16T21:31:48.876Z,20.03
2018-08-16T21:34:17.488Z,18.37
2018-08-16T21:36:45.980Z,18.20
2018-08-16T21:39:14.446Z,21.87
2018-08-16T21:41:42.924Z,19.80
2018-08-16T21:44:11.912Z,20.40
2018-08-16T21:46:40.384Z,20.07
2018-08-16T21:49:08.972Z,19.00
2018-08-16T21:51:37.471Z,19.60
2018-08-16T21:54:06.111Z,22.70
2018-08-16T21:56:34.573Z,22.30
2018-08-16T21:59:03.052Z,21.30
2018-08-16T22:01:31.526Z,22.43
2018-08-16T22:04:00.018Z,23.73
2018-08-16T22:06:39.826Z,22.27
2018-08-16T22:09:08.395Z,24.83
2018-08-16T22:11:36.818Z,22.63
2018-08-16T22:14:05.356Z,23.00
2018-08-16T22:16:33.805Z,23.10
2018-08-16T22:19:02.268Z,24.50
2018-08-16T22:21:30.776Z,24.13
2018-08-16T22:23:59.257Z,23.90
2018-08-16T22:26:29.309Z,22.20
2018-08-16T22:28:58.426Z,24.13
2018-08-16T22:31:27.401Z,23.13
2018-08-16T22:33:55.911Z,26.43
2018-08-16T22:36:24.379Z,24.17
2018-08-16T22:38:52.841Z,27.13
2018-08-16T22:41:21.274Z,23.77
2018-08-16T22:43:49.716Z,23.30
2018-08-16T22:46:18.257Z,22.07
2018-08-16T22:48:46.724Z,22.30
2018-08-16T22:51:15.181Z,24.40
2018-08-16T22:53:43.666Z,26.13
2018-08-16T22:56:12.105Z,24.63
2018-08-16T22:58:40.597Z,27.93
2018-08-16T23:01:09.111Z,26.13
2018-08-16T23:03:37.566Z,25.83
2018-08-16T23:06:06.056Z,27.70
2018-08-16T23:08:34.544Z,25.97
2018-08-16T23:11:02.996Z,25.40
2018-08-16T23:13:31.464Z,30.90
2018-08-16T23:15:59.952Z,28.70
2018-08-16T23:18:28.411Z,25.63
2018-08-16T23:20:56.884Z,26.57
2018-08-16T23:23:25.330Z,27.63
2018-08-16T23:25:54.117Z,29.37
2018-08-16T23:28:22.544Z,25.80
2018-08-16T23:30:51.000Z,25.67
2018-08-16T23:33:19.480Z,33.20
2018-08-16T23:35:48.029Z,29.03
2018-08-16T23:38:16.505Z,33.97
2018-08-16T23:40:45.016Z,32.37
2018-08-16T23:43:13.480Z,32.03
2018-08-16T23:45:41.934Z,28.03
2018-08-16T23:48:21.880Z,27.67
2018-08-16T23:50:50.332Z,30.00
2018-08-16T23:53:18.807Z,31.93
2018-08-16T23:55:47.246Z,29.53
2018-08-16T23:58:15.708Z,29.97
